Flagstaff Pulliam Airport
KFLG : rendu visible

Aérodrome :











RETROUVEZ-NOUS SUR...

 
LOGIN :

S'inscrire | Disclaimer

   EN    FR    IT 

 









Légende :    VFR   VFR Marginal   IFR   IFR Intensif   IFR Très Intensif
Visi : 
Plafond : 
>= 8 km
>= 3000ft
5 à 8 km
1000 à 3000 ft
1500m à 5 km
500 à 1000 ft
800 à 1500m
200 à 500 ft
< 800m
< 200 ft
Symboles :   Orages  Brouillard  Fortes neiges  Fortes précipitations  Vent > 20 kt






- Altitude de l'aérodrome : 7014 ft
- Code IATA : FLG


KFLG - Flagstaff Pulliam

DERNIER METAR :
  • 062357Z 21023G34KT 10SM CLR 11/M10 A3002 RMK AO2 PK WND 23034/2349 SLP111 T01111100 10128 20094 53002

METARs EXPIRÉS :
  • 062257Z AUTO 22024G29KT 10SM CLR 12/M08 A3000 RMK AO2 PK WND 21029/2205 SLP104 T01221078
  • 062157Z AUTO 23021G32KT 10SM CLR 12/M08 A3000 RMK AO2 PK WND 20034/2108 SLP112 T01171078

TAF KFLG
Valide du 07 à 00h jusqu'au 08 à 00h UTC


062325Z 0700/0724 22018G31KT P6SM SKC
FM070200 23011KT P6SM FEW250
FM070400 22005KT P6SM FEW250
FM071800 21014G24KT P6SM SCT250



MET'MAP, la Météo Aéronautique d'un coup d'oeil ! - Copyright ORBIFLY Décembre 2007 - Disclaimer

ORBIFLY MET'MAP TEAM :

Programmation & Développement : Alexandra Zaïnal
Sur une idée originale de : Baudouin d'Aumeries
Assistance à la programmation : Marc-Olivier Méhu
Soutien technique & logistique : Manuel Goepfert

Contact : metmap@orbifly.com




SOURCES & CREDITS :

   NOAA       Earth
Advisory